createdAt,value
2023-03-26T00:01:21.092Z,9.59
2023-03-26T00:03:53.528Z,9.64
2023-03-26T00:06:26.489Z,9.77
2023-03-26T00:08:53.573Z,9.74
2023-03-26T00:11:22.821Z,9.58
2023-03-26T00:13:50.492Z,9.39
2023-03-26T00:16:19.698Z,9.56
2023-03-26T00:18:47.281Z,9.62
2023-03-26T00:23:44.162Z,9.45
2023-03-26T00:26:11.171Z,9.31
2023-03-26T00:28:40.391Z,9.37
2023-03-26T00:31:10.636Z,9.31
2023-03-26T00:33:38.648Z,9.22
2023-03-26T00:36:09.997Z,9.19
2023-03-26T00:38:39.168Z,9.23
2023-03-26T00:41:17.659Z,9.21
2023-03-26T00:43:48.731Z,9.25
2023-03-26T00:46:17.493Z,9.43
2023-03-26T00:48:46.214Z,9.48
2023-03-26T00:51:16.012Z,9.62
2023-03-26T00:53:47.464Z,9.65
2023-03-26T00:56:14.794Z,9.67
2023-03-26T01:01:13.986Z,9.75
2023-03-26T01:03:53.171Z,9.72
2023-03-26T01:06:35.563Z,9.80
2023-03-26T01:09:13.365Z,9.64
2023-03-26T01:11:40.616Z,9.60
2023-03-26T01:14:14.760Z,9.51
2023-03-26T01:16:52.174Z,9.49
2023-03-26T01:19:23.844Z,9.38
2023-03-26T01:21:50.603Z,9.41
2023-03-26T01:24:17.678Z,9.47
2023-03-26T01:27:20.705Z,9.30
2023-03-26T01:29:58.629Z,9.29
2023-03-26T01:32:44.054Z,9.47
2023-03-26T01:35:29.159Z,9.51
2023-03-26T01:38:32.207Z,9.58
2023-03-26T01:41:14.268Z,9.49
2023-03-26T01:43:49.482Z,9.68
2023-03-26T01:46:17.764Z,9.72
2023-03-26T01:48:46.254Z,9.71
2023-03-26T01:51:14.481Z,9.61
2023-03-26T01:53:44.649Z,9.71
2023-03-26T01:56:39.587Z,9.73
2023-03-26T01:59:20.282Z,9.45
2023-03-26T02:02:13.984Z,9.64
2023-03-26T02:05:15.972Z,9.65
2023-03-26T02:08:23.144Z,9.68
2023-03-26T02:10:58.998Z,9.80
2023-03-26T02:13:26.358Z,9.78
2023-03-26T02:16:01.992Z,9.97
2023-03-26T02:18:41.898Z,9.78
2023-03-26T02:21:21.404Z,9.76
2023-03-26T02:23:57.585Z,9.84
2023-03-26T02:26:25.237Z,9.73
2023-03-26T02:29:01.775Z,9.72
2023-03-26T02:31:30.147Z,9.83
2023-03-26T02:33:57.189Z,9.79
2023-03-26T02:36:27.369Z,9.63
2023-03-26T02:39:02.144Z,9.41
2023-03-26T02:41:32.168Z,9.48
2023-03-26T02:44:08.743Z,9.48
2023-03-26T02:46:54.134Z,9.54
2023-03-26T02:49:47.470Z,9.46
2023-03-26T02:52:22.343Z,9.60
2023-03-26T02:54:50.806Z,9.61
2023-03-26T02:57:20.266Z,9.49
2023-03-26T03:00:17.292Z,9.74
2023-03-26T03:03:04.553Z,9.64
2023-03-26T03:05:32.837Z,9.70
2023-03-26T03:08:19.712Z,9.83
2023-03-26T03:11:12.434Z,9.65
2023-03-26T03:13:46.825Z,9.78
2023-03-26T03:16:20.693Z,9.84
2023-03-26T03:18:54.331Z,9.97
2023-03-26T03:21:23.887Z,9.95
2023-03-26T03:23:50.892Z,10.05
2023-03-26T03:26:21.722Z,10.12
2023-03-26T03:28:53.817Z,9.94
2023-03-26T03:31:21.737Z,9.85
2023-03-26T03:33:48.562Z,9.99
2023-03-26T03:36:20.595Z,9.98
2023-03-26T03:38:55.362Z,10.10
2023-03-26T03:41:23.650Z,10.05
2023-03-26T03:43:51.801Z,10.07
2023-03-26T03:46:25.138Z,10.07
2023-03-26T03:48:51.931Z,10.00
2023-03-26T03:51:26.537Z,10.01
2023-03-26T03:53:57.376Z,10.12
2023-03-26T03:56:50.439Z,10.24
2023-03-26T03:59:36.626Z,10.11
2023-03-26T04:02:06.312Z,10.16
2023-03-26T04:04:40.447Z,10.34
2023-03-26T04:07:11.017Z,10.24
2023-03-26T04:10:00.207Z,10.32
2023-03-26T04:12:32.180Z,10.32
2023-03-26T04:15:01.529Z,10.08
2023-03-26T04:17:30.745Z,10.18
2023-03-26T04:19:57.787Z,10.07
2023-03-26T04:22:34.549Z,10.09
2023-03-26T04:25:05.144Z,10.14
2023-03-26T04:27:38.750Z,10.14
2023-03-26T04:30:38.350Z,10.17
2023-03-26T04:33:21.877Z,10.08
2023-03-26T04:35:48.809Z,10.05
2023-03-26T04:38:18.271Z,10.14
2023-03-26T04:40:47.638Z,9.78
2023-03-26T04:43:50.630Z,9.65
2023-03-26T04:46:24.349Z,9.76
2023-03-26T04:49:01.889Z,9.89
2023-03-26T04:51:38.221Z,9.94
2023-03-26T04:54:14.388Z,9.90
2023-03-26T04:57:00.908Z,9.93
2023-03-26T04:59:37.202Z,9.76
2023-03-26T05:02:08.311Z,9.75
2023-03-26T05:04:45.872Z,9.44
2023-03-26T05:07:19.120Z,9.60
2023-03-26T05:09:50.249Z,9.67
2023-03-26T05:12:22.638Z,9.77
2023-03-26T05:15:13.822Z,9.91
2023-03-26T05:17:58.802Z,9.75
2023-03-26T05:20:34.596Z,9.55
2023-03-26T05:23:02.868Z,9.65
2023-03-26T05:25:32.276Z,9.66
2023-03-26T05:28:01.424Z,9.69
2023-03-26T05:30:38.765Z,9.66
2023-03-26T05:33:06.542Z,9.57
2023-03-26T05:35:44.122Z,9.57
2023-03-26T05:38:11.047Z,9.45
2023-03-26T05:40:38.022Z,9.47
2023-03-26T05:43:06.099Z,9.64
2023-03-26T05:45:42.898Z,9.77
2023-03-26T05:48:24.692Z,9.82
2023-03-26T05:50:54.591Z,9.67
2023-03-26T05:53:23.368Z,9.64
2023-03-26T05:56:09.193Z,9.65
2023-03-26T05:58:36.603Z,9.62
2023-03-26T06:01:25.950Z,9.64
2023-03-26T06:04:16.169Z,9.52
2023-03-26T06:07:02.187Z,9.43
2023-03-26T06:09:29.499Z,9.66
2023-03-26T06:11:56.397Z,9.48
2023-03-26T06:14:23.098Z,9.47
2023-03-26T06:17:12.186Z,9.47
2023-03-26T06:19:57.394Z,9.55
2023-03-26T06:22:33.011Z,9.48
2023-03-26T06:25:19.108Z,9.46
2023-03-26T06:28:04.257Z,9.62
2023-03-26T06:30:40.162Z,9.78
2023-03-26T06:33:14.620Z,9.64
2023-03-26T06:35:46.771Z,9.73
2023-03-26T06:38:15.378Z,9.89
2023-03-26T06:40:42.140Z,9.94
2023-03-26T06:43:26.893Z,9.73
2023-03-26T06:46:05.868Z,9.68
2023-03-26T06:48:32.576Z,9.87
2023-03-26T06:51:17.850Z,9.95
2023-03-26T06:54:03.110Z,9.87
2023-03-26T06:56:45.044Z,9.91
2023-03-26T06:59:34.744Z,9.92
2023-03-26T07:02:20.084Z,9.80
2023-03-26T07:05:25.103Z,9.57
2023-03-26T07:08:15.934Z,9.45
2023-03-26T07:11:03.024Z,9.54
2023-03-26T07:13:56.591Z,9.72
2023-03-26T07:16:38.512Z,9.77
2023-03-26T07:19:17.804Z,9.64
2023-03-26T07:21:46.515Z,9.60
2023-03-26T07:24:33.505Z,9.74
2023-03-26T07:27:23.697Z,9.80
2023-03-26T07:30:15.441Z,9.58
2023-03-26T07:33:21.243Z,9.53
2023-03-26T07:36:24.920Z,9.67
2023-03-26T07:39:29.234Z,9.77
2023-03-26T07:42:27.300Z,9.85
2023-03-26T07:45:21.691Z,9.65
2023-03-26T07:48:25.466Z,9.63
2023-03-26T07:51:14.899Z,9.32
2023-03-26T07:53:52.492Z,9.27
2023-03-26T07:56:58.715Z,9.52
2023-03-26T07:59:42.807Z,9.07
2023-03-26T08:02:52.383Z,8.88
2023-03-26T08:06:17.529Z,9.02
2023-03-26T08:09:32.360Z,9.31
2023-03-26T08:12:46.230Z,8.83
2023-03-26T08:15:29.479Z,8.92
2023-03-26T08:18:06.244Z,9.10
2023-03-26T08:20:35.776Z,8.98
2023-03-26T08:23:21.791Z,8.77
2023-03-26T08:25:57.415Z,9.10
2023-03-26T08:28:39.586Z,9.35
2023-03-26T08:31:09.636Z,9.38
2023-03-26T08:33:38.298Z,9.41
2023-03-26T08:36:05.871Z,9.26
2023-03-26T08:38:32.538Z,9.17
2023-03-26T08:41:15.052Z,9.08
2023-03-26T08:44:03.324Z,9.74
2023-03-26T08:46:57.157Z,9.85
2023-03-26T08:50:03.735Z,9.87
2023-03-26T08:52:49.279Z,9.52
2023-03-26T08:55:32.625Z,9.49
2023-03-26T08:58:05.341Z,9.74
2023-03-26T09:00:46.916Z,9.66
2023-03-26T09:03:41.630Z,10.00
2023-03-26T09:06:33.313Z,9.94
2023-03-26T09:09:30.804Z,10.51
2023-03-26T09:12:16.057Z,11.35
2023-03-26T09:15:16.111Z,10.92
2023-03-26T09:17:45.967Z,10.92
2023-03-26T09:20:36.082Z,10.92
2023-03-26T09:23:23.767Z,10.98
2023-03-26T09:25:53.106Z,11.01
2023-03-26T09:28:41.558Z,10.84
2023-03-26T09:31:17.450Z,10.71
2023-03-26T09:33:56.324Z,10.47
2023-03-26T09:36:44.706Z,10.22
2023-03-26T09:39:25.118Z,10.30
2023-03-26T09:42:03.599Z,10.36
2023-03-26T09:44:45.244Z,10.63
2023-03-26T09:47:19.956Z,10.47
2023-03-26T09:49:58.742Z,10.37
2023-03-26T09:52:25.546Z,10.70
2023-03-26T09:55:15.426Z,10.94
2023-03-26T09:57:43.230Z,10.86
2023-03-26T10:00:45.568Z,11.46
2023-03-26T10:03:26.786Z,11.94
2023-03-26T10:06:18.854Z,11.94
2023-03-26T10:09:14.743Z,12.85
2023-03-26T10:11:53.242Z,13.05
2023-03-26T10:14:27.157Z,12.97
2023-03-26T10:17:26.222Z,13.18
2023-03-26T10:20:09.656Z,13.17
2023-03-26T10:23:14.191Z,13.13
2023-03-26T10:25:54.327Z,12.74
2023-03-26T10:29:00.127Z,12.91
2023-03-26T10:31:42.155Z,12.76
2023-03-26T10:34:43.800Z,12.67
2023-03-26T10:37:38.400Z,11.94
2023-03-26T10:40:20.879Z,11.82
2023-03-26T10:42:59.446Z,11.85
2023-03-26T10:45:37.409Z,12.14
2023-03-26T10:48:22.368Z,11.89
2023-03-26T10:50:54.362Z,11.49
2023-03-26T10:53:37.254Z,10.96
2023-03-26T10:56:17.322Z,10.67
2023-03-26T10:58:48.791Z,11.23
2023-03-26T11:01:40.314Z,11.69
2023-03-26T11:04:37.959Z,11.34
2023-03-26T11:07:29.635Z,11.58
2023-03-26T11:10:18.675Z,11.58
2023-03-26T11:12:57.710Z,12.01
2023-03-26T11:15:38.159Z,11.95
2023-03-26T11:18:32.343Z,12.67
2023-03-26T11:21:21.576Z,12.70
2023-03-26T11:24:18.321Z,12.57
2023-03-26T11:27:15.975Z,12.73
2023-03-26T11:30:07.236Z,12.62
2023-03-26T11:32:47.812Z,12.60
2023-03-26T11:35:14.379Z,12.60
2023-03-26T11:37:50.495Z,12.85
2023-03-26T11:40:33.604Z,13.01
2023-03-26T11:43:07.390Z,12.82
2023-03-26T11:45:46.530Z,13.11
2023-03-26T11:48:23.008Z,12.76
2023-03-26T11:50:55.483Z,12.86
2023-03-26T11:53:28.984Z,12.60
2023-03-26T11:56:04.161Z,12.60
2023-03-26T11:58:39.028Z,12.21
2023-03-26T12:01:15.370Z,11.98
2023-03-26T12:03:42.078Z,12.05
2023-03-26T12:06:25.685Z,12.24
2023-03-26T12:08:54.995Z,12.32
2023-03-26T12:11:28.178Z,12.11
2023-03-26T12:14:00.293Z,11.86
2023-03-26T12:16:27.666Z,11.76
2023-03-26T12:18:59.063Z,11.68
2023-03-26T12:21:25.979Z,12.13
2023-03-26T12:24:05.107Z,11.88
2023-03-26T12:26:48.813Z,11.84
2023-03-26T12:29:18.736Z,12.11
2023-03-26T12:31:49.358Z,11.92
2023-03-26T12:34:19.668Z,11.96
2023-03-26T12:36:59.434Z,12.06
2023-03-26T12:40:07.432Z,12.22
2023-03-26T12:44:51.312Z,12.39
2023-03-26T12:46:44.228Z,12.43
2023-03-26T12:48:42.352Z,12.72
2023-03-26T12:51:22.174Z,12.90
2023-03-26T12:53:54.846Z,13.10
2023-03-26T12:56:36.763Z,13.42
2023-03-26T12:59:27.803Z,13.73
2023-03-26T13:02:07.540Z,13.32
2023-03-26T13:05:06.520Z,13.29
2023-03-26T13:07:43.696Z,13.47
2023-03-26T13:10:29.195Z,13.49
2023-03-26T13:13:22.385Z,13.31
2023-03-26T13:15:53.716Z,13.31
2023-03-26T13:18:50.859Z,13.72
2023-03-26T13:21:36.010Z,13.44
2023-03-26T13:24:21.396Z,13.65
2023-03-26T13:27:16.023Z,13.93
2023-03-26T13:29:59.890Z,14.11
2023-03-26T13:33:08.383Z,14.04
2023-03-26T13:35:44.263Z,14.04
2023-03-26T13:38:16.901Z,14.08
2023-03-26T13:41:04.274Z,13.84
2023-03-26T13:43:49.425Z,13.83
2023-03-26T13:46:26.734Z,14.05
2023-03-26T13:49:13.482Z,13.75
2023-03-26T13:51:55.804Z,13.47
2023-03-26T13:54:27.389Z,13.59
2023-03-26T13:57:05.524Z,13.62
2023-03-26T13:59:40.564Z,13.68
2023-03-26T14:02:15.936Z,13.68
2023-03-26T14:04:48.794Z,13.51
2023-03-26T14:07:24.743Z,13.43
2023-03-26T14:09:58.729Z,13.39
2023-03-26T14:12:49.006Z,13.46
2023-03-26T14:15:53.763Z,13.69
2023-03-26T14:18:36.240Z,13.59
2023-03-26T14:21:13.674Z,13.73
2023-03-26T14:23:57.740Z,13.53
2023-03-26T14:26:40.465Z,13.63
2023-03-26T14:29:23.874Z,13.81
2023-03-26T14:31:58.141Z,13.61
2023-03-26T14:34:36.535Z,13.52
2023-03-26T14:37:42.712Z,13.43
2023-03-26T14:40:43.438Z,13.58
2023-03-26T14:43:12.796Z,13.39
2023-03-26T14:46:05.942Z,13.18
2023-03-26T14:49:02.938Z,13.20
2023-03-26T14:51:56.797Z,12.67
2023-03-26T14:54:28.457Z,12.91
2023-03-26T14:57:31.735Z,12.74
2023-03-26T15:00:25.196Z,12.89
2023-03-26T15:03:09.985Z,12.60
2023-03-26T15:06:03.964Z,12.29
2023-03-26T15:09:17.497Z,12.63
2023-03-26T15:12:13.048Z,12.27
2023-03-26T15:14:55.607Z,11.97
2023-03-26T15:17:44.079Z,12.03
2023-03-26T15:20:34.852Z,11.96
2023-03-26T15:23:28.356Z,11.79
2023-03-26T15:26:16.695Z,11.87
2023-03-26T15:29:03.391Z,11.91
2023-03-26T15:31:36.843Z,11.99
2023-03-26T15:34:30.729Z,12.02
2023-03-26T15:37:03.392Z,11.87
2023-03-26T15:39:44.079Z,12.03
2023-03-26T15:42:58.380Z,11.69
2023-03-26T15:45:39.415Z,11.80
2023-03-26T15:48:12.323Z,11.59
2023-03-26T15:51:22.496Z,11.46
2023-03-26T15:54:00.499Z,11.68
2023-03-26T15:56:52.931Z,11.32
2023-03-26T15:59:41.831Z,11.57
2023-03-26T16:02:34.670Z,11.41
2023-03-26T16:05:37.075Z,11.09
2023-03-26T16:08:25.516Z,11.02
2023-03-26T16:10:56.470Z,11.27
2023-03-26T16:13:26.630Z,11.03
2023-03-26T16:15:57.818Z,11.16
2023-03-26T16:18:31.421Z,10.98
2023-03-26T16:21:34.353Z,11.02
2023-03-26T16:24:07.997Z,10.87
2023-03-26T16:26:44.233Z,10.62
2023-03-26T16:29:17.919Z,10.76
2023-03-26T16:32:10.955Z,10.80
2023-03-26T16:35:02.717Z,10.60
2023-03-26T16:37:36.352Z,10.48
2023-03-26T16:40:18.409Z,10.72
2023-03-26T16:42:52.501Z,10.64
2023-03-26T16:45:30.557Z,10.74
2023-03-26T16:48:20.024Z,10.71
2023-03-26T16:51:04.786Z,10.55
2023-03-26T16:54:09.610Z,10.46
2023-03-26T16:56:54.081Z,10.52
2023-03-26T17:00:04.488Z,10.62
2023-03-26T17:02:57.016Z,10.58
2023-03-26T17:05:38.007Z,10.85
2023-03-26T17:08:35.401Z,10.58
2023-03-26T17:11:36.689Z,10.59
2023-03-26T17:14:30.621Z,10.47
2023-03-26T17:17:03.338Z,10.63
2023-03-26T17:19:39.464Z,10.51
2023-03-26T17:22:17.109Z,10.47
2023-03-26T17:24:57.830Z,10.58
2023-03-26T17:27:53.856Z,10.52
2023-03-26T17:30:49.269Z,10.29
2023-03-26T17:33:36.849Z,10.23
2023-03-26T17:36:12.736Z,10.37
2023-03-26T17:38:39.479Z,10.40
2023-03-26T17:41:08.424Z,10.49
2023-03-26T17:43:52.448Z,10.23
2023-03-26T17:46:48.369Z,10.31
2023-03-26T17:49:22.879Z,10.27
2023-03-26T17:51:58.449Z,10.27
2023-03-26T17:54:36.315Z,10.15
2023-03-26T17:57:09.524Z,10.32
2023-03-26T17:59:38.811Z,10.36
2023-03-26T18:02:15.383Z,10.33
2023-03-26T18:04:45.701Z,10.35
2023-03-26T18:08:03.463Z,10.28
2023-03-26T18:10:38.838Z,10.29
2023-03-26T18:13:11.687Z,10.15
2023-03-26T18:15:46.858Z,10.15
2023-03-26T18:18:19.886Z,10.04
2023-03-26T18:20:49.276Z,10.10
2023-03-26T18:23:38.779Z,10.22
2023-03-26T18:26:41.081Z,10.09
2023-03-26T18:29:21.654Z,9.99
2023-03-26T18:31:53.215Z,9.97
2023-03-26T18:34:20.760Z,10.03
2023-03-26T18:37:16.387Z,10.01
2023-03-26T18:40:15.784Z,9.94
2023-03-26T18:42:48.219Z,9.91
2023-03-26T18:45:37.846Z,9.93
2023-03-26T18:48:19.109Z,9.97
2023-03-26T18:51:05.981Z,10.07
2023-03-26T18:53:51.276Z,9.86
2023-03-26T18:56:31.490Z,9.86
2023-03-26T18:59:03.462Z,9.90
2023-03-26T19:01:36.592Z,9.84
2023-03-26T19:04:08.640Z,9.94
2023-03-26T19:06:40.658Z,9.94
2023-03-26T19:09:28.623Z,9.87
2023-03-26T19:12:16.087Z,9.85
2023-03-26T19:14:57.245Z,9.99
2023-03-26T19:17:31.729Z,9.91
2023-03-26T19:19:59.149Z,9.91
2023-03-26T19:22:27.733Z,9.86
2023-03-26T19:25:01.123Z,9.90
2023-03-26T19:27:30.199Z,9.75
2023-03-26T19:29:57.792Z,9.65
2023-03-26T19:32:32.873Z,9.50
2023-03-26T19:35:02.049Z,9.46
2023-03-26T19:37:30.780Z,9.58
2023-03-26T19:40:18.825Z,9.45
2023-03-26T19:42:45.780Z,9.38
2023-03-26T19:45:21.952Z,9.29
2023-03-26T19:48:03.636Z,9.29
2023-03-26T19:50:37.072Z,9.26
2023-03-26T19:53:34.992Z,9.03
2023-03-26T19:56:21.849Z,8.94
2023-03-26T19:58:50.151Z,8.99
2023-03-26T20:01:29.708Z,9.01
2023-03-26T20:04:00.874Z,9.06
2023-03-26T20:06:42.344Z,9.07
2023-03-26T20:09:13.916Z,8.88
2023-03-26T20:11:41.101Z,8.95
2023-03-26T20:14:17.099Z,9.00
2023-03-26T20:16:45.453Z,8.82
2023-03-26T20:19:14.832Z,8.77
2023-03-26T20:21:42.960Z,8.66
2023-03-26T20:24:18.014Z,8.81
2023-03-26T20:26:45.869Z,8.74
2023-03-26T20:29:13.394Z,8.63
2023-03-26T20:31:44.107Z,8.68
2023-03-26T20:34:23.525Z,8.61
2023-03-26T20:37:01.310Z,8.66
2023-03-26T20:39:28.267Z,8.69
2023-03-26T20:41:56.324Z,8.81
2023-03-26T20:44:23.872Z,8.68
2023-03-26T20:46:51.330Z,8.72
2023-03-26T20:49:18.630Z,8.73
2023-03-26T20:51:46.442Z,8.76
2023-03-26T20:54:19.279Z,8.65
2023-03-26T20:56:50.577Z,8.60
2023-03-26T20:59:26.130Z,8.57
2023-03-26T21:01:56.422Z,8.74
2023-03-26T21:04:24.668Z,8.76
2023-03-26T21:06:53.348Z,8.88
2023-03-26T21:09:25.315Z,8.95
2023-03-26T21:11:59.280Z,8.89
2023-03-26T21:14:33.851Z,8.91
2023-03-26T21:17:01.395Z,8.90
2023-03-26T21:19:29.089Z,8.85
2023-03-26T21:22:26.310Z,8.97
2023-03-26T21:25:01.829Z,9.21
2023-03-26T21:27:47.409Z,9.21
2023-03-26T21:30:16.236Z,9.43
2023-03-26T21:32:44.894Z,9.37
2023-03-26T21:35:13.585Z,9.46
2023-03-26T21:37:43.002Z,9.17
2023-03-26T21:40:14.829Z,9.25
2023-03-26T21:42:53.431Z,9.46
2023-03-26T21:45:21.895Z,9.37
2023-03-26T21:47:49.532Z,9.43
2023-03-26T21:50:22.773Z,9.34
2023-03-26T21:52:50.953Z,9.26
2023-03-26T21:55:20.587Z,9.33
2023-03-26T21:58:05.172Z,9.16
2023-03-26T22:00:45.685Z,9.24
2023-03-26T22:03:25.759Z,9.40
2023-03-26T22:06:12.363Z,9.22
2023-03-26T22:08:44.483Z,9.13
2023-03-26T22:11:12.166Z,9.12
2023-03-26T22:13:39.117Z,8.97
2023-03-26T22:16:07.607Z,9.12
2023-03-26T22:18:34.507Z,9.11
2023-03-26T22:21:01.643Z,8.86
2023-03-26T22:23:34.083Z,9.11
2023-03-26T22:26:00.876Z,8.96
2023-03-26T22:28:27.634Z,8.99
2023-03-26T22:30:54.508Z,8.91
2023-03-26T22:33:21.344Z,8.99
2023-03-26T22:35:48.055Z,8.88
2023-03-26T22:38:16.931Z,8.59
2023-03-26T22:40:43.697Z,8.56
2023-03-26T22:43:10.321Z,8.52
2023-03-26T22:45:37.639Z,8.72
2023-03-26T22:48:04.734Z,8.79
2023-03-26T22:50:33.488Z,8.69
2023-03-26T22:53:00.431Z,8.75
2023-03-26T22:55:29.402Z,8.62
2023-03-26T22:57:56.999Z,8.77
2023-03-26T23:00:26.234Z,8.61
2023-03-26T23:02:55.726Z,8.65
2023-03-26T23:05:22.699Z,8.67
2023-03-26T23:07:49.430Z,8.46
2023-03-26T23:10:16.219Z,8.60
2023-03-26T23:12:42.906Z,8.59
2023-03-26T23:15:10.561Z,8.56
2023-03-26T23:17:38.578Z,8.55
2023-03-26T23:20:14.586Z,8.57
2023-03-26T23:22:42.834Z,8.53
2023-03-26T23:25:10.221Z,8.60
2023-03-26T23:27:37.481Z,8.51
2023-03-26T23:30:04.790Z,8.52
2023-03-26T23:32:31.680Z,8.57
2023-03-26T23:34:58.855Z,8.37
2023-03-26T23:37:25.516Z,8.42
2023-03-26T23:39:52.431Z,8.37
2023-03-26T23:42:28.624Z,8.67
2023-03-26T23:44:57.453Z,8.61
2023-03-26T23:47:24.439Z,8.47
2023-03-26T23:49:51.255Z,8.50
2023-03-26T23:52:18.244Z,8.41
2023-03-26T23:54:45.502Z,8.33
2023-03-26T23:57:12.233Z,8.28
2023-03-26T23:59:41.337Z,8.11
